If you wish to contribute or participate in the discussions about articles you are invited to join SKYbrary as a registered user

 Actions

Carajás Airport

From SKYbrary Wiki

SBCJ
Airport
ICAO: SBCJ – IATA: CKS
Summary
Name Carajás Airport
Region South America and Caribbean
Territory Brazil BR.gif
Location Carajás, Para
Serving Parauapebas
Elevation 629.107 m
2,064 ft629.107 m
Coordinates 6° 6' 55.01" S, 50° 0' 5.00" W
Runways
Designator Length Width Surface ROPS
10/28 2000 m6,561.68 ft
45 m147.638 ft
ASP /


METAR
Observation SBCJ 141600Z 00000KT 9999 VCSH SCT025 FEW027TCU 25/22 Q1015
Station Carajas / Maraba
Date/Time 14 October 2019 16:00:00
Wind direction
Wind speed 00 kts
Lowest cloud amount scattered clouds
Temperature 25°C
Dew point 22°C
Humidity 83%
QNH 1015 hPa
Weather condition in vicinity: showers

Carajás Airport is the airport serving Parauapebas, Brazil.

Climatology

Tropical savannah climate (Köppen climate classification Aw)

Maps

Terrain

Loading map...

Airport Layout

Loading map...


Accidents & Serious Incidents at or in vicinity of SBCJ

None on SKYbrary